sensor_id;sensor_type;location;lat;lon;timestamp;temperature;humidity
19174;DHT22;9719;49.322;8.536;2023-06-22T00:00:03;29.10;84.60
19174;DHT22;9719;49.322;8.536;2023-06-22T00:05:09;29.10;84.60
19174;DHT22;9719;49.322;8.536;2023-06-22T00:10:10;29.10;84.50
19174;DHT22;9719;49.322;8.536;2023-06-22T00:15:13;29.10;84.50
19174;DHT22;9719;49.322;8.536;2023-06-22T00:20:15;29.10;84.40
19174;DHT22;9719;49.322;8.536;2023-06-22T00:25:18;29.10;84.50
19174;DHT22;9719;49.322;8.536;2023-06-22T00:30:21;29.00;84.30
19174;DHT22;9719;49.322;8.536;2023-06-22T00:35:23;29.00;84.30
19174;DHT22;9719;49.322;8.536;2023-06-22T00:40:29;29.00;84.30
19174;DHT22;9719;49.322;8.536;2023-06-22T00:45:32;29.00;84.30
19174;DHT22;9719;49.322;8.536;2023-06-22T00:50:34;29.00;84.30
19174;DHT22;9719;49.322;8.536;2023-06-22T00:55:37;29.00;84.30
19174;DHT22;9719;49.322;8.536;2023-06-22T01:00:42;29.00;84.30
19174;DHT22;9719;49.322;8.536;2023-06-22T01:05:43;29.00;84.20
19174;DHT22;9719;49.322;8.536;2023-06-22T01:10:50;29.00;84.20
19174;DHT22;9719;49.322;8.536;2023-06-22T01:15:59;29.00;84.30
19174;DHT22;9719;49.322;8.536;2023-06-22T01:21:02;29.00;84.20
19174;DHT22;9719;49.322;8.536;2023-06-22T01:26:13;29.00;84.30
19174;DHT22;9719;49.322;8.536;2023-06-22T01:31:23;28.90;84.20
19174;DHT22;9719;49.322;8.536;2023-06-22T01:36:26;29.00;84.30
19174;DHT22;9719;49.322;8.536;2023-06-22T01:41:29;28.90;84.30
19174;DHT22;9719;49.322;8.536;2023-06-22T01:46:33;28.90;84.30
19174;DHT22;9719;49.322;8.536;2023-06-22T01:51:35;28.90;84.30
19174;DHT22;9719;49.322;8.536;2023-06-22T01:56:37;28.90;84.30
19174;DHT22;9719;49.322;8.536;2023-06-22T02:01:43;28.90;84.30
19174;DHT22;9719;49.322;8.536;2023-06-22T02:06:47;28.90;84.20
19174;DHT22;9719;49.322;8.536;2023-06-22T02:11:52;28.90;84.20
19174;DHT22;9719;49.322;8.536;2023-06-22T02:16:57;28.90;84.20
19174;DHT22;9719;49.322;8.536;2023-06-22T02:21:59;28.90;84.20
19174;DHT22;9719;49.322;8.536;2023-06-22T02:27:02;28.90;84.20
19174;DHT22;9719;49.322;8.536;2023-06-22T02:32:06;28.90;84.20
19174;DHT22;9719;49.322;8.536;2023-06-22T02:37:07;28.90;84.20
19174;DHT22;9719;49.322;8.536;2023-06-22T02:42:13;28.90;84.20
19174;DHT22;9719;49.322;8.536;2023-06-22T02:47:17;28.90;84.20
19174;DHT22;9719;49.322;8.536;2023-06-22T02:52:18;28.80;84.10
19174;DHT22;9719;49.322;8.536;2023-06-22T02:57:20;28.80;84.10
19174;DHT22;9719;49.322;8.536;2023-06-22T03:02:23;28.80;84.00
19174;DHT22;9719;49.322;8.536;2023-06-22T03:07:24;28.80;84.00
19174;DHT22;9719;49.322;8.536;2023-06-22T03:12:26;28.80;84.00
19174;DHT22;9719;49.322;8.536;2023-06-22T03:17:29;28.80;84.10
19174;DHT22;9719;49.322;8.536;2023-06-22T03:22:32;28.80;84.00
19174;DHT22;9719;49.322;8.536;2023-06-22T03:27:33;28.80;84.00
19174;DHT22;9719;49.322;8.536;2023-06-22T03:32:36;28.80;84.00
19174;DHT22;9719;49.322;8.536;2023-06-22T03:37:38;28.80;84.00
19174;DHT22;9719;49.322;8.536;2023-06-22T03:42:40;28.80;84.00
19174;DHT22;9719;49.322;8.536;2023-06-22T03:47:43;28.80;84.00
19174;DHT22;9719;49.322;8.536;2023-06-22T03:52:44;28.80;83.90
19174;DHT22;9719;49.322;8.536;2023-06-22T03:57:46;28.80;84.00
19174;DHT22;9719;49.322;8.536;2023-06-22T04:02:49;28.80;83.90
19174;DHT22;9719;49.322;8.536;2023-06-22T04:07:50;28.70;83.90
19174;DHT22;9719;49.322;8.536;2023-06-22T04:12:52;28.70;83.90
19174;DHT22;9719;49.322;8.536;2023-06-22T04:17:56;28.70;83.90
19174;DHT22;9719;49.322;8.536;2023-06-22T04:22:57;28.80;83.90
19174;DHT22;9719;49.322;8.536;2023-06-22T04:27:59;28.70;83.80
19174;DHT22;9719;49.322;8.536;2023-06-22T04:33:04;28.70;83.80
19174;DHT22;9719;49.322;8.536;2023-06-22T04:38:06;28.70;83.80
19174;DHT22;9719;49.322;8.536;2023-06-22T04:43:08;28.70;84.30
19174;DHT22;9719;49.322;8.536;2023-06-22T04:48:12;28.70;86.30
19174;DHT22;9719;49.322;8.536;2023-06-22T04:53:16;28.60;88.60
19174;DHT22;9719;49.322;8.536;2023-06-22T04:58:17;28.50;90.10
19174;DHT22;9719;49.322;8.536;2023-06-22T05:03:21;28.40;91.20
19174;DHT22;9719;49.322;8.536;2023-06-22T05:08:23;28.20;92.30
19174;DHT22;9719;49.322;8.536;2023-06-22T05:13:26;28.10;93.30
19174;DHT22;9719;49.322;8.536;2023-06-22T05:18:30;28.00;94.40
19174;DHT22;9719;49.322;8.536;2023-06-22T05:23:32;27.90;95.50
19174;DHT22;9719;49.322;8.536;2023-06-22T05:28:33;27.80;95.80
19174;DHT22;9719;49.322;8.536;2023-06-22T05:33:36;27.70;96.50
19174;DHT22;9719;49.322;8.536;2023-06-22T05:38:39;27.70;97.00
19174;DHT22;9719;49.322;8.536;2023-06-22T05:43:40;27.70;97.50
19174;DHT22;9719;49.322;8.536;2023-06-22T05:48:43;27.60;97.80
19174;DHT22;9719;49.322;8.536;2023-06-22T05:53:45;27.60;98.10
19174;DHT22;9719;49.322;8.536;2023-06-22T05:58:49;27.60;97.90
19174;DHT22;9719;49.322;8.536;2023-06-22T06:03:53;27.60;98.20
19174;DHT22;9719;49.322;8.536;2023-06-22T06:08:54;27.60;98.30
19174;DHT22;9719;49.322;8.536;2023-06-22T06:13:56;27.60;98.40
19174;DHT22;9719;49.322;8.536;2023-06-22T06:18:59;27.70;98.30
19174;DHT22;9719;49.322;8.536;2023-06-22T06:24:01;27.80;98.00
19174;DHT22;9719;49.322;8.536;2023-06-22T06:29:03;27.80;97.70
19174;DHT22;9719;49.322;8.536;2023-06-22T06:34:06;27.90;97.40
19174;DHT22;9719;49.322;8.536;2023-06-22T06:39:07;28.00;97.10
19174;DHT22;9719;49.322;8.536;2023-06-22T06:44:10;28.00;96.80
19174;DHT22;9719;49.322;8.536;2023-06-22T06:49:13;28.10;96.50
19174;DHT22;9719;49.322;8.536;2023-06-22T06:54:14;28.10;96.20
19174;DHT22;9719;49.322;8.536;2023-06-22T06:59:16;28.20;95.90
19174;DHT22;9719;49.322;8.536;2023-06-22T07:04:19;28.20;95.60
19174;DHT22;9719;49.322;8.536;2023-06-22T07:09:21;28.20;95.40
19174;DHT22;9719;49.322;8.536;2023-06-22T07:14:22;28.30;95.20
19174;DHT22;9719;49.322;8.536;2023-06-22T07:19:26;28.30;94.90
19174;DHT22;9719;49.322;8.536;2023-06-22T07:24:28;28.30;94.70
19174;DHT22;9719;49.322;8.536;2023-06-22T07:29:29;28.40;94.50
19174;DHT22;9719;49.322;8.536;2023-06-22T07:34:33;28.40;94.30
19174;DHT22;9719;49.322;8.536;2023-06-22T07:39:35;28.40;94.10
19174;DHT22;9719;49.322;8.536;2023-06-22T07:44:38;28.40;93.90
19174;DHT22;9719;49.322;8.536;2023-06-22T07:49:41;28.40;94.00
19174;DHT22;9719;49.322;8.536;2023-06-22T07:54:42;28.50;93.80
19174;DHT22;9719;49.322;8.536;2023-06-22T07:59:44;28.60;94.00
19174;DHT22;9719;49.322;8.536;2023-06-22T08:04:47;28.60;93.90
19174;DHT22;9719;49.322;8.536;2023-06-22T08:09:49;28.60;93.60
19174;DHT22;9719;49.322;8.536;2023-06-22T08:14:50;28.60;92.50
19174;DHT22;9719;49.322;8.536;2023-06-22T08:19:53;28.50;91.20
19174;DHT22;9719;49.322;8.536;2023-06-22T08:24:55;28.40;90.20
19174;DHT22;9719;49.322;8.536;2023-06-22T08:29:57;28.30;88.40
19174;DHT22;9719;49.322;8.536;2023-06-22T08:35:02;28.20;86.80
19174;DHT22;9719;49.322;8.536;2023-06-22T08:40:05;28.00;84.00
19174;DHT22;9719;49.322;8.536;2023-06-22T08:45:09;27.90;82.10
19174;DHT22;9719;49.322;8.536;2023-06-22T08:50:12;27.80;80.80
19174;DHT22;9719;49.322;8.536;2023-06-22T08:55:14;27.70;80.30
19174;DHT22;9719;49.322;8.536;2023-06-22T09:00:17;27.60;78.90
19174;DHT22;9719;49.322;8.536;2023-06-22T09:05:21;27.60;77.90
19174;DHT22;9719;49.322;8.536;2023-06-22T09:10:23;27.50;76.90
19174;DHT22;9719;49.322;8.536;2023-06-22T09:15:25;27.50;76.20
19174;DHT22;9719;49.322;8.536;2023-06-22T09:20:28;27.40;75.00
19174;DHT22;9719;49.322;8.536;2023-06-22T09:25:29;27.30;73.90
19174;DHT22;9719;49.322;8.536;2023-06-22T09:30:31;27.20;72.80
19174;DHT22;9719;49.322;8.536;2023-06-22T09:35:34;27.10;71.90
19174;DHT22;9719;49.322;8.536;2023-06-22T09:40:36;27.00;71.00
19174;DHT22;9719;49.322;8.536;2023-06-22T09:45:40;26.90;70.30
19174;DHT22;9719;49.322;8.536;2023-06-22T09:50:43;26.80;69.70
19174;DHT22;9719;49.322;8.536;2023-06-22T09:55:45;26.80;69.30
19174;DHT22;9719;49.322;8.536;2023-06-22T10:00:46;26.70;68.80
19174;DHT22;9719;49.322;8.536;2023-06-22T10:05:49;26.70;68.50
19174;DHT22;9719;49.322;8.536;2023-06-22T10:10:51;26.60;67.90
19174;DHT22;9719;49.322;8.536;2023-06-22T10:15:52;26.60;67.70
19174;DHT22;9719;49.322;8.536;2023-06-22T10:20:55;26.50;67.30
19174;DHT22;9719;49.322;8.536;2023-06-22T10:25:57;26.50;66.90
19174;DHT22;9719;49.322;8.536;2023-06-22T10:30:59;26.40;66.50
19174;DHT22;9719;49.322;8.536;2023-06-22T10:36:02;26.40;66.20
19174;DHT22;9719;49.322;8.536;2023-06-22T10:41:03;26.30;65.90
19174;DHT22;9719;49.322;8.536;2023-06-22T10:46:07;26.20;65.60
19174;DHT22;9719;49.322;8.536;2023-06-22T10:51:10;26.20;65.50
19174;DHT22;9719;49.322;8.536;2023-06-22T10:56:11;26.10;65.50
19174;DHT22;9719;49.322;8.536;2023-06-22T11:01:13;26.10;65.40
19174;DHT22;9719;49.322;8.536;2023-06-22T11:06:16;26.10;65.50
19174;DHT22;9719;49.322;8.536;2023-06-22T11:11:18;26.10;65.40
19174;DHT22;9719;49.322;8.536;2023-06-22T11:16:20;26.10;65.40
19174;DHT22;9719;49.322;8.536;2023-06-22T11:21:23;26.00;65.30
19174;DHT22;9719;49.322;8.536;2023-06-22T11:26:25;26.10;65.30
19174;DHT22;9719;49.322;8.536;2023-06-22T11:31:27;26.00;65.20
19174;DHT22;9719;49.322;8.536;2023-06-22T11:36:30;26.00;65.20
19174;DHT22;9719;49.322;8.536;2023-06-22T11:41:33;26.00;65.00
19174;DHT22;9719;49.322;8.536;2023-06-22T11:46:35;26.00;64.90
19174;DHT22;9719;49.322;8.536;2023-06-22T11:51:38;25.90;64.80
19174;DHT22;9719;49.322;8.536;2023-06-22T11:56:39;25.90;64.60
19174;DHT22;9719;49.322;8.536;2023-06-22T12:01:41;25.90;64.60
19174;DHT22;9719;49.322;8.536;2023-06-22T12:06:44;25.80;64.50
19174;DHT22;9719;49.322;8.536;2023-06-22T12:11:45;25.80;65.70
19174;DHT22;9719;49.322;8.536;2023-06-22T12:16:47;25.90;67.40
19174;DHT22;9719;49.322;8.536;2023-06-22T12:21:50;26.00;67.10
19174;DHT22;9719;49.322;8.536;2023-06-22T12:26:52;26.10;67.30
19174;DHT22;9719;49.322;8.536;2023-06-22T12:31:53;26.10;67.50
19174;DHT22;9719;49.322;8.536;2023-06-22T12:36:56;26.20;67.80
19174;DHT22;9719;49.322;8.536;2023-06-22T12:41:58;26.20;67.90
19174;DHT22;9719;49.322;8.536;2023-06-22T12:47:00;26.20;68.10
19174;DHT22;9719;49.322;8.536;2023-06-22T12:52:04;26.20;68.20
19174;DHT22;9719;49.322;8.536;2023-06-22T12:57:09;26.30;68.40
19174;DHT22;9719;49.322;8.536;2023-06-22T13:02:11;26.20;68.40
19174;DHT22;9719;49.322;8.536;2023-06-22T13:07:15;26.20;68.50
19174;DHT22;9719;49.322;8.536;2023-06-22T13:12:17;26.30;68.80
19174;DHT22;9719;49.322;8.536;2023-06-22T13:17:18;26.40;69.10
19174;DHT22;9719;49.322;8.536;2023-06-22T13:22:31;26.50;69.20
19174;DHT22;9719;49.322;8.536;2023-06-22T13:27:33;26.60;69.10
19174;DHT22;9719;49.322;8.536;2023-06-22T13:32:35;26.70;69.30
19174;DHT22;9719;49.322;8.536;2023-06-22T13:37:38;26.80;69.30
19174;DHT22;9719;49.322;8.536;2023-06-22T13:42:40;26.80;69.30
19174;DHT22;9719;49.322;8.536;2023-06-22T13:47:41;26.90;69.90
19174;DHT22;9719;49.322;8.536;2023-06-22T13:52:44;27.00;69.60
19174;DHT22;9719;49.322;8.536;2023-06-22T13:57:46;27.10;69.60
19174;DHT22;9719;49.322;8.536;2023-06-22T14:02:48;27.10;69.80
19174;DHT22;9719;49.322;8.536;2023-06-22T14:07:51;27.10;69.80
19174;DHT22;9719;49.322;8.536;2023-06-22T14:12:53;27.20;69.90
19174;DHT22;9719;49.322;8.536;2023-06-22T14:17:54;27.20;70.00
19174;DHT22;9719;49.322;8.536;2023-06-22T14:22:57;27.20;69.90
19174;DHT22;9719;49.322;8.536;2023-06-22T14:27:59;27.30;70.00
19174;DHT22;9719;49.322;8.536;2023-06-22T14:33:01;27.30;70.00
19174;DHT22;9719;49.322;8.536;2023-06-22T14:38:04;27.30;70.10
19174;DHT22;9719;49.322;8.536;2023-06-22T14:43:05;27.30;70.10
19174;DHT22;9719;49.322;8.536;2023-06-22T14:48:07;27.30;70.20
19174;DHT22;9719;49.322;8.536;2023-06-22T14:53:10;27.40;70.50
19174;DHT22;9719;49.322;8.536;2023-06-22T14:58:11;27.40;70.50
19174;DHT22;9719;49.322;8.536;2023-06-22T15:03:13;27.40;70.70
19174;DHT22;9719;49.322;8.536;2023-06-22T15:08:23;27.40;70.80
19174;DHT22;9719;49.322;8.536;2023-06-22T15:13:24;27.50;71.20
19174;DHT22;9719;49.322;8.536;2023-06-22T15:18:26;27.50;71.30
19174;DHT22;9719;49.322;8.536;2023-06-22T15:23:30;27.50;71.30
19174;DHT22;9719;49.322;8.536;2023-06-22T15:28:32;27.60;71.40
19174;DHT22;9719;49.322;8.536;2023-06-22T15:33:37;27.70;71.40
19174;DHT22;9719;49.322;8.536;2023-06-22T15:38:40;27.70;71.50
19174;DHT22;9719;49.322;8.536;2023-06-22T15:43:42;27.70;72.40
19174;DHT22;9719;49.322;8.536;2023-06-22T15:48:43;27.80;71.70
19174;DHT22;9719;49.322;8.536;2023-06-22T15:53:46;27.80;71.70
19174;DHT22;9719;49.322;8.536;2023-06-22T15:58:48;27.80;71.90
19174;DHT22;9719;49.322;8.536;2023-06-22T16:03:50;27.90;72.00
19174;DHT22;9719;49.322;8.536;2023-06-22T16:08:53;27.90;72.00
19174;DHT22;9719;49.322;8.536;2023-06-22T16:13:54;27.90;72.10
19174;DHT22;9719;49.322;8.536;2023-06-22T16:18:56;27.90;72.20
19174;DHT22;9719;49.322;8.536;2023-06-22T16:23:59;27.90;72.20
19174;DHT22;9719;49.322;8.536;2023-06-22T16:29:00;27.80;72.20
19174;DHT22;9719;49.322;8.536;2023-06-22T16:34:03;27.90;72.20
19174;DHT22;9719;49.322;8.536;2023-06-22T16:39:06;27.90;72.40
19174;DHT22;9719;49.322;8.536;2023-06-22T16:44:07;27.90;72.50
19174;DHT22;9719;49.322;8.536;2023-06-22T16:49:09;27.90;72.60
19174;DHT22;9719;49.322;8.536;2023-06-22T16:54:12;27.90;72.40
19174;DHT22;9719;49.322;8.536;2023-06-22T16:59:14;27.90;72.60
19174;DHT22;9719;49.322;8.536;2023-06-22T17:04:19;28.00;72.80
19174;DHT22;9719;49.322;8.536;2023-06-22T17:09:25;28.00;72.80
19174;DHT22;9719;49.322;8.536;2023-06-22T17:14:27;28.00;72.70
19174;DHT22;9719;49.322;8.536;2023-06-22T17:19:29;28.10;72.80
19174;DHT22;9719;49.322;8.536;2023-06-22T17:24:32;28.10;72.80
19174;DHT22;9719;49.322;8.536;2023-06-22T17:29:33;28.00;72.90
19174;DHT22;9719;49.322;8.536;2023-06-22T17:34:36;28.10;73.00
19174;DHT22;9719;49.322;8.536;2023-06-22T17:39:39;28.10;73.50
19174;DHT22;9719;49.322;8.536;2023-06-22T17:44:42;28.10;73.70
19174;DHT22;9719;49.322;8.536;2023-06-22T17:49:44;28.10;73.70
19174;DHT22;9719;49.322;8.536;2023-06-22T17:54:50;28.10;73.70
19174;DHT22;9719;49.322;8.536;2023-06-22T17:59:52;28.20;73.80
19174;DHT22;9719;49.322;8.536;2023-06-22T18:04:56;28.20;73.80
19174;DHT22;9719;49.322;8.536;2023-06-22T18:10:01;28.20;73.70
19174;DHT22;9719;49.322;8.536;2023-06-22T18:15:04;28.20;73.60
19174;DHT22;9719;49.322;8.536;2023-06-22T18:20:07;28.20;74.00
19174;DHT22;9719;49.322;8.536;2023-06-22T18:25:12;28.20;74.10
19174;DHT22;9719;49.322;8.536;2023-06-22T18:30:16;28.20;74.00
19174;DHT22;9719;49.322;8.536;2023-06-22T18:35:18;28.30;73.90
19174;DHT22;9719;49.322;8.536;2023-06-22T18:40:21;28.20;73.80
19174;DHT22;9719;49.322;8.536;2023-06-22T18:45:23;28.20;73.70
19174;DHT22;9719;49.322;8.536;2023-06-22T18:50:36;28.20;73.70
19174;DHT22;9719;49.322;8.536;2023-06-22T18:55:43;28.30;73.70
19174;DHT22;9719;49.322;8.536;2023-06-22T19:00:45;28.30;73.80
19174;DHT22;9719;49.322;8.536;2023-06-22T19:05:51;28.20;73.80
19174;DHT22;9719;49.322;8.536;2023-06-22T19:11:10;28.20;73.80
19174;DHT22;9719;49.322;8.536;2023-06-22T19:16:12;28.30;73.80
19174;DHT22;9719;49.322;8.536;2023-06-22T19:21:21;28.20;73.90
19174;DHT22;9719;49.322;8.536;2023-06-22T19:26:25;28.20;73.80
19174;DHT22;9719;49.322;8.536;2023-06-22T19:31:26;28.20;74.00
19174;DHT22;9719;49.322;8.536;2023-06-22T19:36:30;28.20;76.40
19174;DHT22;9719;49.322;8.536;2023-06-22T19:41:33;28.20;77.60
19174;DHT22;9719;49.322;8.536;2023-06-22T19:46:35;28.10;77.80
19174;DHT22;9719;49.322;8.536;2023-06-22T19:51:37;28.10;78.30
19174;DHT22;9719;49.322;8.536;2023-06-22T19:56:40;28.00;78.40
19174;DHT22;9719;49.322;8.536;2023-06-22T20:01:42;27.90;78.50
19174;DHT22;9719;49.322;8.536;2023-06-22T20:07:01;27.90;78.80
19174;DHT22;9719;49.322;8.536;2023-06-22T20:12:04;27.90;79.30
19174;DHT22;9719;49.322;8.536;2023-06-22T20:17:06;27.80;79.40
19174;DHT22;9719;49.322;8.536;2023-06-22T20:22:09;27.80;79.70
19174;DHT22;9719;49.322;8.536;2023-06-22T20:27:13;27.80;80.00
19174;DHT22;9719;49.322;8.536;2023-06-22T20:32:15;27.70;80.20
19174;DHT22;9719;49.322;8.536;2023-06-22T20:37:17;27.70;80.60
19174;DHT22;9719;49.322;8.536;2023-06-22T20:42:23;27.60;80.90
19174;DHT22;9719;49.322;8.536;2023-06-22T20:47:24;27.60;81.30
19174;DHT22;9719;49.322;8.536;2023-06-22T20:52:26;27.50;81.60
19174;DHT22;9719;49.322;8.536;2023-06-22T20:57:29;27.40;82.00
19174;DHT22;9719;49.322;8.536;2023-06-22T21:02:30;27.40;82.30
19174;DHT22;9719;49.322;8.536;2023-06-22T21:07:32;27.30;82.50
19174;DHT22;9719;49.322;8.536;2023-06-22T21:12:35;27.20;83.10
19174;DHT22;9719;49.322;8.536;2023-06-22T21:17:37;27.20;83.60
19174;DHT22;9719;49.322;8.536;2023-06-22T21:22:39;27.10;83.80
19174;DHT22;9719;49.322;8.536;2023-06-22T21:27:43;27.00;84.00
19174;DHT22;9719;49.322;8.536;2023-06-22T21:32:44;26.90;84.20
19174;DHT22;9719;49.322;8.536;2023-06-22T21:37:46;26.90;84.30
19174;DHT22;9719;49.322;8.536;2023-06-22T21:42:49;26.90;84.50
19174;DHT22;9719;49.322;8.536;2023-06-22T21:47:51;26.90;84.30
19174;DHT22;9719;49.322;8.536;2023-06-22T21:52:53;27.00;84.40
19174;DHT22;9719;49.322;8.536;2023-06-22T21:57:55;27.10;84.40
19174;DHT22;9719;49.322;8.536;2023-06-22T22:02:57;27.10;84.30
19174;DHT22;9719;49.322;8.536;2023-06-22T22:07:59;27.10;84.20
19174;DHT22;9719;49.322;8.536;2023-06-22T22:13:03;27.20;84.30
19174;DHT22;9719;49.322;8.536;2023-06-22T22:18:05;27.20;84.20
19174;DHT22;9719;49.322;8.536;2023-06-22T22:23:08;27.20;84.10
19174;DHT22;9719;49.322;8.536;2023-06-22T22:28:11;27.20;84.20
19174;DHT22;9719;49.322;8.536;2023-06-22T22:33:13;27.30;84.30
19174;DHT22;9719;49.322;8.536;2023-06-22T22:38:15;27.30;84.30
19174;DHT22;9719;49.322;8.536;2023-06-22T22:43:18;27.40;84.20
19174;DHT22;9719;49.322;8.536;2023-06-22T22:48:20;27.40;84.00
19174;DHT22;9719;49.322;8.536;2023-06-22T22:53:22;27.50;83.90
19174;DHT22;9719;49.322;8.536;2023-06-22T22:58:25;27.50;83.70
19174;DHT22;9719;49.322;8.536;2023-06-22T23:03:27;27.50;83.50
19174;DHT22;9719;49.322;8.536;2023-06-22T23:08:30;27.60;83.40
19174;DHT22;9719;49.322;8.536;2023-06-22T23:13:33;27.60;83.20
19174;DHT22;9719;49.322;8.536;2023-06-22T23:18:35;27.60;83.00
19174;DHT22;9719;49.322;8.536;2023-06-22T23:23:37;27.70;82.90
19174;DHT22;9719;49.322;8.536;2023-06-22T23:28:41;27.70;82.80
19174;DHT22;9719;49.322;8.536;2023-06-22T23:33:42;27.70;82.60
19174;DHT22;9719;49.322;8.536;2023-06-22T23:38:44;27.70;82.50
19174;DHT22;9719;49.322;8.536;2023-06-22T23:43:47;27.70;82.40
19174;DHT22;9719;49.322;8.536;2023-06-22T23:48:48;27.70;82.20
19174;DHT22;9719;49.322;8.536;2023-06-22T23:53:50;27.70;82.10
19174;DHT22;9719;49.322;8.536;2023-06-22T23:58:53;27.70;82.00
